Time;durP1;ratioP1;P1;durP2;ratioP2;P2;SDS_P1;SDS_P2;PMS_P1;PMS_P2;Temp;Humidity;BMP_temperature;BMP_pressure;BME280_temperature;BME280_humidity;BME280_pressure;Samples;Min_cycle;Max_cycle;Signal;HPM_P1;HPM_P2
2023/06/10 00:32:26;;;;;;;;;;;;;;;;;;;;;
2023/06/10 00:46:29;;;;;;;;;;;;;;;;;;;;;
2023/06/10 01:17:32;;;;;;;;;;;;;;;;;;;;;
2023/06/10 01:24:41;;;;;;;10.73;7.20;;;;;;;-145.18;100.00;47183.94;4965942;28;20034;-84
2023/06/10 01:53:21;;;;;;;;;;;;;;;;;;;;;
2023/06/10 02:56:17;;;;;;;8.30;7.40;;;;;;;-145.18;100.00;46629.13;4792239;29;21387;-84
2023/06/10 02:59:00;;;;;;;12.80;7.13;;;;;;;-145.18;100.00;46646.72;4874954;29;20762;-84
2023/06/10 03:02:12;;;;;;;10.10;7.40;;;;;;;-145.18;100.00;46617.41;4913851;29;20438;-84
2023/06/10 03:05:03;;;;;;;11.20;7.83;;;;;;;-145.18;100.00;46636.94;4909115;29;20420;-84
2023/06/10 03:07:40;;;;;;;9.17;7.53;;;;;;;-145.18;100.00;46603.75;4912083;29;20500;-84
2023/06/10 03:11:04;;;;;;;10.47;7.23;;;;;;;-145.18;100.00;46584.22;4973294;28;20542;-85
2023/06/10 03:29:27;;;;;;;;;;;;;;;;;;;;;
2023/06/10 03:55:31;;;;;;;;;;;;;;;;;;;;;
2023/06/10 04:08:12;;;;;;;10.30;6.53;;;;;;;-145.18;100.00;46607.66;4803192;29;20120;-84
2023/06/10 04:10:46;;;;;;;9.23;6.00;;;;;;;-145.18;100.00;46615.47;4838747;29;20042;-84
2023/06/10 04:13:52;;;;;;;10.13;6.30;;;;;;;-145.18;100.00;46613.50;4839054;29;20074;-84
2023/06/10 04:30:09;;;;;;;12.37;5.87;;;;;;;-145.18;100.00;46679.94;4914572;29;20170;-84
2023/06/10 04:37:12;;;;;;;9.33;5.30;;;;;;;-145.18;100.00;46722.91;4943419;29;20097;-84
2023/06/10 04:40:54;;;;;;;9.23;5.90;;;;;;;-145.18;100.00;46789.31;4879259;29;20060;-84
2023/06/10 04:44:07;;;;;;;;;;;;;;;;;;;;;
2023/06/10 04:50:32;;;;;;;9.73;6.10;;;;;;;-145.18;100.00;46654.53;4750181;30;20054;-82
2023/06/10 05:18:08;;;;;;;;;;;;;;;;;;;;;
2023/06/10 05:21:31;;;;;;;22.93;5.87;;;;;;;-145.18;100.00;46691.66;4905714;29;20051;-83
2023/06/10 05:24:23;;;;;;;14.80;6.03;;;;;;;-145.18;100.00;46689.69;4959993;28;20573;-82
2023/06/10 05:26:50;;;;;;;10.80;5.90;;;;;;;-145.18;100.00;46652.59;5050868;28;20087;-83
2023/06/10 05:29:30;;;;;;;10.20;5.53;;;;;;;-145.18;100.00;46687.75;5030051;28;20089;-82
2023/06/10 05:32:08;;;;;;;10.23;6.00;;;;;;;-145.18;100.00;46773.69;5050562;28;20063;-83
2023/06/10 05:34:34;;;;;;;8.03;4.97;;;;;;;-145.18;100.00;46689.69;5032487;28;20553;-83
2023/06/10 05:37:04;;;;;;;9.20;5.30;;;;;;;-145.18;100.00;46715.09;5026032;28;20104;-83
2023/06/10 05:39:40;;;;;;;8.00;5.33;;;;;;;-145.18;100.00;46640.88;5032115;28;20025;-84
2023/06/10 05:42:25;;;;;;;7.60;5.13;;;;;;;-145.18;100.00;46715.09;5017291;28;20036;-84
2023/06/10 05:45:28;;;;;;;8.83;5.40;;;;;;;-145.18;100.00;46750.25;5014786;28;20566;-85
2023/06/10 05:55:53;;;;;;;7.67;5.13;;;;;;;-145.18;100.00;46969.03;5048352;28;20510;-83
2023/06/10 05:58:20;;;;;;;11.43;5.73;;;;;;;-145.18;100.00;46992.47;4952766;28;20080;-85
2023/06/10 06:01:03;;;;;;;10.23;5.43;;;;;;;-145.18;100.00;46828.38;5026748;28;20041;-85
2023/06/10 06:03:51;;;;;;;8.50;5.60;;;;;;;-145.18;100.00;46803.00;5030060;28;20486;-85
2023/06/10 06:06:24;;;;;;;7.33;5.33;;;;;;;-145.18;100.00;47090.16;5029137;28;20041;-85
2023/06/10 06:09:17;;;;;;;12.43;6.13;;;;;;;-145.18;100.00;47172.19;5004304;28;20051;-85
2023/06/10 06:11:43;;;;;;;10.13;5.77;;;;;;;-145.18;100.00;47146.81;5002137;28;20080;-82
2023/06/10 06:14:23;;;;;;;11.90;5.63;;;;;;;-145.18;100.00;47180.03;5034535;28;21169;-82
2023/06/10 06:16:49;;;;;;;10.43;5.70;;;;;;;-145.18;100.00;47211.28;5024532;28;20627;-83
2023/06/10 06:19:16;;;;;;;8.97;5.40;;;;;;;-145.18;100.00;47183.94;5027786;28;20050;-82
2023/06/10 06:29:15;;;;;;;8.77;5.00;;;;;;;-145.18;100.00;47166.34;5044158;28;20497;-83
2023/06/10 06:48:38;;;;;;;9.03;6.30;;;;;;;-145.18;100.00;47088.19;5043437;28;20086;-85
2023/06/10 06:51:18;;;;;;;10.27;5.47;;;;;;;-145.18;100.00;47105.78;5031605;28;20040;-85
2023/06/10 06:53:58;;;;;;;9.63;5.50;;;;;;;-145.18;100.00;47086.25;5011523;28;20626;-85
2023/06/10 07:00:23;;;;;;;10.50;5.60;;;;;;;-145.18;100.00;47076.47;5052157;28;20055;-83
2023/06/10 07:02:48;;;;;;;7.40;5.20;;;;;;;-145.18;100.00;47064.75;5034621;28;20059;-82
2023/06/10 07:05:17;;;;;;;8.27;5.17;;;;;;;-145.18;100.00;47064.75;5052796;28;20047;-83
2023/06/10 07:07:56;;;;;;;;;;;;;;;;;;;;;
2023/06/10 07:10:24;;;;;;;11.87;5.47;;;;;;;-145.18;100.00;47066.72;5054134;28;20400;-83
2023/06/10 07:12:50;;;;;;;8.90;5.50;;;;;;;-145.18;100.00;47053.03;5036492;28;20056;-83
2023/06/10 07:15:19;;;;;;;13.17;6.00;;;;;;;-145.18;100.00;47049.13;5034192;28;20167;-82
2023/06/10 07:17:48;;;;;;;11.13;5.80;;;;;;;-145.18;100.00;47066.72;5035272;28;20056;-83
2023/06/10 07:20:14;;;;;;;7.53;4.90;;;;;;;-145.18;100.00;47058.91;5055967;28;20028;-82
2023/06/10 07:22:41;;;;;;;10.53;5.63;;;;;;;-145.18;100.00;47078.44;5053817;28;20478;-82
2023/06/10 07:25:52;;;;;;;6.43;4.60;;;;;;;-145.18;100.00;47056.94;5074415;28;20111;-82
2023/06/10 07:27:53;;;;;;;;;;;;;;;-145.18;100.00;47045.22;5047633;28;20041;-82
2023/06/10 07:30:18;;;;;;;;;;;;;;;-145.18;100.00;47031.53;5069322;28;19943;-83
2023/06/10 07:32:43;;;;;;;11.03;4.90;;;;;;;-145.18;100.00;47039.34;5064702;28;19912;-83
2023/06/10 07:35:11;;;;;;;8.13;4.80;;;;;;;-145.18;100.00;47031.53;5064301;28;20029;-82
2023/06/10 07:37:36;;;;;;;6.30;4.33;;;;;;;-145.18;100.00;47023.72;5029485;28;20040;-83
2023/06/10 07:40:02;;;;;;;12.30;5.57;;;;;;;-145.18;100.00;47062.81;5053127;28;20029;-83
2023/06/10 07:42:27;;;;;;;8.43;5.13;;;;;;;-145.18;100.00;47012.00;5068771;28;20439;-83
2023/06/10 07:44:52;;;;;;;9.13;5.83;;;;;;;-145.18;100.00;47017.88;5066373;28;20017;-83
2023/06/10 07:47:20;;;;;;;12.83;5.10;;;;;;;-145.18;100.00;47023.72;5066996;28;20155;-82
2023/06/10 07:50:06;;;;;;;6.53;5.13;;;;;;;-145.18;100.00;47019.81;5050520;28;20033;-82
2023/06/10 07:52:32;;;;;;;9.67;5.90;;;;;;;-145.18;100.00;47019.81;5055406;28;20036;-82
2023/06/10 07:54:58;;;;;;;8.60;5.63;;;;;;;-145.18;100.00;47000.28;5073925;28;20036;-83
2023/06/10 07:57:23;;;;;;;8.43;4.90;;;;;;;-145.18;100.00;47043.28;5055798;28;20464;-82
2023/06/10 07:59:53;;;;;;;7.10;5.23;;;;;;;-145.18;100.00;47012.00;5055604;28;20039;-82
2023/06/10 08:02:18;;;;;;;8.97;5.00;;;;;;;-145.18;100.00;47004.19;5050462;28;20043;-82
2023/06/10 08:04:56;;;;;;;12.50;6.20;;;;;;;-145.18;100.00;47012.00;5069354;28;20112;-82
2023/06/10 08:07:22;;;;;;;9.07;5.37;;;;;;;-145.18;100.00;47012.00;5045904;28;20636;-83
2023/06/10 08:09:56;;;;;;;10.20;5.83;;;;;;;-145.18;100.00;47000.28;5034545;28;20020;-82
2023/06/10 08:12:22;;;;;;;14.57;5.07;;;;;;;-145.18;100.00;47004.19;5053796;28;20044;-82
2023/06/10 08:14:50;;;;;;;8.77;5.10;;;;;;;-145.18;100.00;46996.38;5024507;28;20041;-83
2023/06/10 08:17:39;;;;;;;8.23;4.97;;;;;;;-145.18;100.00;46992.47;5056338;28;20029;-82
2023/06/10 08:20:24;;;;;;;6.80;5.20;;;;;;;-145.18;100.00;46996.38;5037925;28;20045;-83
2023/06/10 08:22:50;;;;;;;8.15;5.43;;;;;;;-145.18;100.00;46986.63;5062317;28;20472;-83
2023/06/10 08:25:15;;;;;;;9.05;5.22;;;;;;;-145.18;100.00;46986.63;5032126;28;20071;-83
2023/06/10 08:27:41;;;;;;;12.33;5.37;;;;;;;-145.18;100.00;46971.00;5053505;28;20028;-83
2023/06/10 08:30:07;;;;;;;9.40;5.70;;;;;;;-145.18;100.00;46994.44;5063945;28;20052;-82
2023/06/10 08:32:33;;;;;;;10.07;5.60;;;;;;;-145.18;100.00;46996.38;5055081;28;20468;-83
2023/06/10 08:35:05;;;;;;;9.25;6.13;;;;;;;-145.18;100.00;46971.00;5036035;28;20048;-85
2023/06/10 08:37:30;;;;;;;14.30;5.60;;;;;;;-145.18;100.00;46988.56;5072083;28;20028;-84
2023/06/10 08:39:56;;;;;;;8.95;6.03;;;;;;;-145.18;100.00;46994.44;5054460;28;20349;-83
2023/06/10 08:42:44;;;;;;;12.82;6.43;;;;;;;-145.18;100.00;46965.13;5065314;28;20032;-83
2023/06/10 08:45:16;;;;;;;8.00;5.72;;;;;;;-145.18;100.00;46994.44;5063372;28;20138;-83
2023/06/10 08:47:45;;;;;;;11.50;6.57;;;;;;;-145.18;100.00;46963.19;5067492;28;20020;-83
2023/06/10 08:50:14;;;;;;;11.00;6.80;;;;;;;-145.18;100.00;46980.75;5069644;28;20095;-83
2023/06/10 08:52:43;;;;;;;9.10;6.38;;;;;;;-145.18;100.00;46969.03;5072543;28;20025;-83
2023/06/10 08:55:47;;;;;;;10.30;5.93;;;;;;;-145.18;100.00;46986.63;5047059;28;20031;-83
2023/06/10 09:09:02;;;;;;;12.57;5.45;;;;;;;-145.18;100.00;46947.53;5067517;28;20028;-81
2023/06/10 09:12:21;;;;;;;8.30;5.43;;;;;;;-145.18;100.00;46949.50;5064054;28;20040;-81
2023/06/10 09:14:47;;;;;;;8.93;5.28;;;;;;;-145.18;100.00;46955.34;5044364;28;20105;-83
2023/06/10 09:17:18;;;;;;;10.55;5.68;;;;;;;-145.18;100.00;46967.09;5070118;28;20040;-83
2023/06/10 09:19:45;;;;;;;7.50;5.20;;;;;;;-145.18;100.00;46947.53;5042862;28;20094;-83
2023/06/10 09:22:35;;;;;;;9.13;4.90;;;;;;;-145.18;100.00;46935.81;5023647;28;20029;-83
2023/06/10 09:25:05;;;;;;;6.03;5.05;;;;;;;-145.18;100.00;46933.88;5012112;28;20103;-83
2023/06/10 09:27:32;;;;;;;9.07;5.50;;;;;;;-145.18;100.00;46914.34;5043477;28;20323;-84
2023/06/10 09:30:39;;;;;;;9.00;5.05;;;;;;;-145.18;100.00;46929.97;5021774;28;20087;-83
2023/06/10 09:43:46;;;;;;;7.93;4.57;;;;;;;-145.18;100.00;46922.16;4905671;29;19931;-84
2023/06/10 09:46:29;;;;;;;7.60;5.53;;;;;;;-145.18;100.00;46916.28;4904139;28;20056;-84
2023/06/10 09:48:57;;;;;;;7.65;5.18;;;;;;;-145.18;100.00;46904.56;5018372;28;20227;-84
2023/06/10 09:51:23;;;;;;;8.18;5.25;;;;;;;-145.18;100.00;46906.53;5025617;28;20111;-84
2023/06/10 09:53:51;;;;;;;8.07;5.75;;;;;;;-145.18;100.00;46931.91;5041294;28;20143;-84
2023/06/10 10:03:36;;;;;;;10.05;5.30;;;;;;;-145.18;100.00;46902.63;4940694;29;19921;-83
2023/06/10 10:12:58;;;;;;;7.90;4.90;;;;;;;-145.18;100.00;46898.72;4955325;28;20078;-85
2023/06/10 10:16:08;;;;;;;10.68;5.47;;;;;;;-145.18;100.00;46898.72;4913240;28;20035;-82
2023/06/10 10:18:58;;;;;;;9.18;5.60;;;;;;;-145.18;100.00;46890.91;4881367;29;20432;-84
2023/06/10 10:21:43;;;;;;;9.40;5.35;;;;;;;-145.18;100.00;46881.13;4893024;29;20052;-84
2023/06/10 10:24:33;;;;;;;7.28;5.22;;;;;;;-145.18;100.00;46922.16;4972912;28;20470;-84
2023/06/10 10:27:36;;;;;;;8.00;5.40;;;;;;;-145.18;100.00;46892.84;4951501;28;20117;-84
2023/06/10 10:30:10;;;;;;;9.43;4.45;;;;;;;-145.18;100.00;46906.53;4973374;28;20041;-84
2023/06/10 10:33:22;;;;;;;7.75;4.22;;;;;;;-145.18;100.00;46887.00;5001798;28;20473;-83
2023/06/10 10:39:26;;;;;;;5.45;4.60;;;;;;;-145.18;100.00;46918.25;4938555;28;20046;-81
2023/06/10 10:43:00;;;;;;;;;;;;;;;;;;;;;
2023/06/10 10:56:30;;;;;;;7.43;4.32;;;;;;;-145.18;100.00;46865.50;4872135;29;20556;-82
2023/06/10 10:59:46;;;;;;;5.57;4.05;;;;;;;-145.18;100.00;46844.00;4869079;29;20055;-87
2023/06/10 11:05:39;;;;;;;6.38;4.47;;;;;;;-145.18;100.00;46847.91;4982356;28;20530;-84
2023/06/10 11:08:06;;;;;;;7.97;3.88;;;;;;;-145.18;100.00;46859.63;5049258;28;20025;-83
2023/06/10 11:10:40;;;;;;;10.32;4.05;;;;;;;-145.18;97.59;46861.59;5049457;28;20557;-84
2023/06/10 11:13:22;;;;;;;7.82;4.65;;;;;;;-145.18;100.00;46851.81;5052464;28;20395;-85
2023/06/10 11:15:54;;;;;;;6.43;4.57;;;;;;;-145.18;94.90;46851.81;5035035;28;20033;-84
2023/06/10 11:18:31;;;;;;;8.70;4.55;;;;;;;-145.18;100.00;46859.63;5032757;28;20461;-84
2023/06/10 11:21:01;;;;;;;6.43;4.57;;;;;;;-145.18;87.80;46845.97;5052646;28;20037;-82
2023/06/10 11:23:32;;;;;;;6.43;4.15;;;;;;;-145.18;90.78;46851.81;5050781;28;20025;-81
2023/06/10 11:30:31;;;;;;;6.82;3.85;;;;;;;-145.18;83.70;46844.00;5052724;28;20465;-81
2023/06/10 11:33:31;;;;;;;5.78;4.35;;;;;;;-145.18;77.06;46840.09;5047737;28;20053;-80
2023/06/10 11:35:58;;;;;;;5.00;3.92;;;;;;;-145.18;71.78;46822.53;5050514;28;20130;-79
2023/06/10 11:38:24;;;;;;;6.82;3.92;;;;;;;-145.18;78.88;46867.44;5054584;28;20055;-80
2023/06/10 11:40:53;;;;;;;6.25;4.25;;;;;;;-145.18;72.24;46851.81;5052890;28;20449;-80
2023/06/10 11:45:08;;;;;;;8.05;4.35;;;;;;;-145.18;80.30;46836.19;5047336;28;20092;-83
2023/06/10 11:47:47;;;;;;;5.75;4.15;;;;;;;-145.18;78.79;46844.00;5028671;28;20035;-83
2023/06/10 11:51:05;;;;;;;8.75;4.32;;;;;;;-145.18;72.95;46853.78;5045422;28;20053;-84
2023/06/10 11:54:13;;;;;;;8.10;4.10;;;;;;;-145.18;67.16;46828.38;5039958;28;20037;-84
2023/06/10 12:01:13;;;;;;;6.63;4.00;;;;;;;-145.18;65.33;46832.28;4912015;29;20095;-82
2023/06/10 12:04:37;;;;;;;;;;;;;;;;;;;;;
2023/06/10 12:07:34;;;;;;;5.50;4.18;;;;;;;-145.18;69.05;46810.81;4915374;29;20087;-84
2023/06/10 12:10:59;;;;;;;6.75;4.28;;;;;;;-145.18;65.68;46816.66;4914391;28;20135;-84
2023/06/10 12:22:04;;;;;;;;;;;;;;;;;;;;;
2023/06/10 12:25:27;;;;;;;;;;;;;;;;;;;;;
2023/06/10 12:28:15;;;;;;;7.63;4.05;;;;;;;-145.18;63.97;46824.47;4899622;29;20045;-83
2023/06/10 12:31:19;;;;;;;9.63;4.55;;;;;;;-145.18;61.57;46812.75;4951829;28;20043;-83
2023/06/10 12:34:52;;;;;;;7.97;3.80;;;;;;;-145.18;56.59;46810.81;4914693;29;20529;-83
2023/06/10 12:38:00;;;;;;;5.03;3.63;;;;;;;-145.18;62.39;46818.63;4932134;28;20604;-83
2023/06/10 12:41:25;;;;;;;5.13;4.35;;;;;;;-145.18;60.31;46801.03;4921150;28;20034;-84
2023/06/10 12:44:34;;;;;;;5.28;4.00;;;;;;;-145.18;55.29;46804.94;4948550;28;20039;-82
2023/06/10 12:48:57;;;;;;;;;;;;;;;;;;;;;
2023/06/10 12:51:48;;;;;;;;;;;;;;;;;;;;;
2023/06/10 12:58:52;;;;;;;;;;;;;;;;;;;;;
2023/06/10 13:02:13;;;;;;;8.40;3.85;;;;;;;-145.18;56.84;46806.91;4932944;29;20047;-83
2023/06/10 13:05:51;;;;;;;7.38;4.63;;;;;;;-145.18;56.13;46812.75;4875987;29;20045;-82
2023/06/10 13:12:52;;;;;;;5.25;4.10;;;;;;;-145.18;56.26;46791.28;4702858;30;20071;-83
2023/06/10 13:26:39;;;;;;;10.48;4.30;;;;;;;-145.18;54.50;46775.66;4694825;30;20046;-84
2023/06/10 13:29:24;;;;;;;;;;;;;;;;;;;;;
2023/06/10 13:32:25;;;;;;;6.22;3.70;;;;;;;-145.18;55.18;46804.94;4824040;29;20041;-83
2023/06/10 13:35:11;;;;;;;5.13;4.00;;;;;;;-145.18;55.28;46789.31;4903541;28;20487;-83
2023/06/10 13:38:00;;;;;;;6.00;4.32;;;;;;;-145.18;54.21;46801.03;4936115;29;20066;-83
2023/06/10 13:40:46;;;;;;;8.70;4.20;;;;;;;-145.18;52.28;46803.00;4990390;28;20038;-83
2023/06/10 13:43:20;;;;;;;;;;;;;;;-145.18;50.13;46803.00;5016007;28;20037;-83
2023/06/10 13:46:28;;;;;;;6.20;3.67;;;;;;;-145.18;52.29;46791.28;5034038;28;19912;-83
2023/06/10 13:55:57;;;;;;;7.00;4.45;;;;;;;-145.18;53.74;46789.31;4992789;28;20053;-81
2023/06/10 14:10:40;;;;;;;5.45;3.78;;;;;;;-145.18;50.46;46793.22;4911502;28;20028;-82
2023/06/10 14:13:00;;;;;;;5.60;3.97;;;;;;;-145.18;48.11;46793.22;4913474;28;20070;-83
2023/06/10 14:32:35;;;;;;;5.57;3.80;;;;;;;-145.18;51.30;46789.31;4914259;29;20054;-82
2023/06/10 14:38:47;;;;;;;4.00;2.78;;;;;;;-145.18;48.38;46773.69;4996213;28;20068;-83
2023/06/10 16:05:07;;;;;;;4.45;3.70;;;;;;;-145.18;36.64;46699.47;4957340;28;20047;-85
2023/06/10 16:07:32;;;;;;;4.75;3.88;;;;;;;-145.18;35.69;46709.22;4979182;28;20106;-85
2023/06/10 16:09:58;;;;;;;5.82;4.05;;;;;;;-145.18;35.55;46693.59;5045438;28;20060;-85
2023/06/10 16:12:24;;;;;;;5.13;3.75;;;;;;;-145.18;36.21;46703.38;5035797;28;20040;-84
2023/06/10 16:14:49;;;;;;;4.43;3.85;;;;;;;-145.18;34.71;46695.56;5045556;28;20037;-85
2023/06/10 16:17:14;;;;;;;10.50;3.88;;;;;;;-145.18;35.41;46703.38;5050913;28;20044;-85
2023/06/10 16:19:40;;;;;;;5.65;3.85;;;;;;;-145.18;34.49;46715.09;5042658;28;20029;-85
2023/06/10 16:22:15;;;;;;;;;;;;;;;;;;;;;
2023/06/10 16:56:18;;;;;;;5.70;3.30;;;;;;;-145.18;39.47;46804.94;4895826;29;20056;-84
